MSC Lisbon — A8LL9 — position and weather

sailwx.info

Track history (hours):
 
Tides and Currents Weather Stations Pressure Air Temp Water Temp Dewpoint Dewpoint Depression Visibility Wind Speed Wind Dir Waves Ship Positions

MSC Lisbon

Last reported at 2015-Aug-30 13:25 UTC. Time now 2015-Aug-30 14:03 UTC.
Position N 36°41' W 000°24'.

Length 336.7 m; beam 45.6 m; draft 15.3 m.

Type: Ship (hazmat cat A). MMSI: 636091276.

Date/timePositionNaut miles runAvg speedWind from/ knotsBaromVisibWave heightAir tempDewpointWater temp
2015-Aug-30 13:25N 36°41' W 000°24'1713.3
2015-Aug-30 12:08N 36°37' W 000°45'913.4
2015-Aug-30 11:28N 36°35' W 000°55'15113.2
2015-Aug-30 00:00N 36°06' W 004°00'24514.5 060 / 161016.0 2.2 25.023.624.2
2015-Aug-29 07:04N 36°31' W 009°03'1213.7
2015-Aug-29 06:13N 36°34' W 009°17'913.7
2015-Aug-29 05:33N 36°40' W 009°25'1313.3
2015-Aug-29 04:33N 36°52' W 009°33'1312.7
2015-Aug-29 03:34N 37°04' W 009°31'1413.6
2015-Aug-29 02:33N 37°16' W 009°22'1413.5
2015-Aug-29 01:33N 37°27' W 009°12'1413.6
2015-Aug-29 00:33N 37°38' W 009°03'1413.9
2015-Aug-28 23:33N 37°50' W 008°53'7 6.4
2015-Aug-28 22:32N 37°56' W 008°51'0 0.0
2015-Aug-28 21:32N 37°56' W 008°51'0 0.0
2015-Aug-28 20:32N 37°56' W 008°51'0 0.0
2015-Aug-28 19:32N 37°56' W 008°51'0 0.0
2015-Aug-28 18:32N 37°56' W 008°51'0 0.0
2015-Aug-28 17:29N 37°56' W 008°51'0 0.0
2015-Aug-28 16:32N 37°56' W 008°51'0 0.0
2015-Aug-28 15:32N 37°56' W 008°51'0 0.0
2015-Aug-28 14:32N 37°56' W 008°51'0 0.0
2015-Aug-28 13:32N 37°56' W 008°51'0 0.0
2015-Aug-28 12:32N 37°56' W 008°51'0 0.0
2015-Aug-28 11:32N 37°56' W 008°51'0 0.0
2015-Aug-28 10:32N 37°56' W 008°51'0 0.0
2015-Aug-28 09:32N 37°56' W 008°51'0 0.2
2015-Aug-28 08:33N 37°56' W 008°51'5 4.7
2015-Aug-28 07:33N 37°54' W 008°56'1111.2
2015-Aug-28 06:33N 37°55' W 009°10'1413.7
2015-Aug-28 05:33N 37°56' W 009°28'1413.7
2015-Aug-28 04:33N 37°59' W 009°45'1313.3
2015-Aug-28 03:33N 38°00' W 010°02'1313.4
2015-Aug-28 02:33N 38°01' W 010°19'1313.3
2015-Aug-28 01:33N 38°02' W 010°35'1313.3
2015-Aug-28 00:33N 38°03' W 010°52'711.8
2015-Aug-28 00:00N 38°00' W 011°00'819.1 280 / 101017.0 5.4 22.521.122.2
2015-Aug-27 23:33N 38°04' W 011°10'1413.8
2015-Aug-27 22:33N 38°04' W 011°27'1413.6
2015-Aug-27 21:33N 38°05' W 011°44'1413.5
2015-Aug-27 20:33N 38°06' W 012°02'1513.9
2015-Aug-27 19:30N 38°07' W 012°20'10213.6
2015-Aug-27 12:00N 38°12' W 014°30'17014.1 230 / 191016.0 5.4 1.524.521.722.5
2015-Aug-27 00:00N 38°18' W 018°06'25114.3 230 / 251014.5 5.4 23.020.823.0
2015-Aug-26 06:28N 38°13' W 023°26'1415.4
2015-Aug-26 05:33N 38°13' W 023°44'1515.5
2015-Aug-26 04:34N 38°12' W 024°04'1616.0
2015-Aug-26 03:33N 38°11' W 024°24'1616.2
2015-Aug-26 02:34N 38°10' W 024°44'1616.3
2015-Aug-26 01:34N 38°10' W 025°05'1616.2
2015-Aug-26 00:33N 38°10' W 025°26'915.6
2015-Aug-26 00:00N 38°06' W 025°36'819.2 240 / 241016.5 5.4 23.522.123.4
2015-Aug-25 23:33N 38°09' W 025°46'1615.7
2015-Aug-25 22:33N 38°09' W 026°06'1615.7
2015-Aug-25 21:34N 38°09' W 026°26'1615.6
2015-Aug-25 20:33N 38°08' W 026°45'1615.7
2015-Aug-25 19:33N 38°08' W 027°05'1615.6
2015-Aug-25 18:33N 38°08' W 027°25'915.2
2015-Aug-25 18:00N 38°06' W 027°36'817.3 240 / 221017.0 5.4 1.526.021.823.4
2015-Aug-25 17:33N 38°07' W 027°45'1615.6
2015-Aug-25 16:33N 38°07' W 028°05'1615.8
2015-Aug-25 15:33N 38°07' W 028°25'1615.7
2015-Aug-25 14:33N 38°06' W 028°45'1615.9
2015-Aug-25 13:33N 38°06' W 029°05'1615.8
2015-Aug-25 12:33N 38°06' W 029°25'1017.8
2015-Aug-25 12:00N 38°00' W 029°36'921.8 240 / 241018.010.8 1.026.021.024.0
2015-Aug-25 11:33N 38°05' W 029°46'1616.0
2015-Aug-25 10:33N 38°05' W 030°06'1616.3
2015-Aug-25 09:33N 38°03' W 030°27'1918.5
2015-Aug-25 08:33N 38°02' W 030°50'2016.3
2015-Aug-25 07:19N 38°00' W 031°16'30315.7
2015-Aug-24 12:00N 37°24' W 037°36'19816.5 240 / 101024.427.0 0.527.020.626.0
2015-Aug-24 00:00N 36°54' W 041°42'19115.9 170 / 71026.127.0 1.025.918.726.9
2015-Aug-23 12:00N 36°18' W 045°36'9515.9 150 / 141024.010.8 1.027.521.124.8
2015-Aug-23 06:00N 35°54' W 047°30'38716.1 180 / 101022.0 5.4 25.022.226.6
2015-Aug-22 06:00N 34°12' W 055°06'19216.0 110 / 191019.0 5.4 26.023.227.7
2015-Aug-21 18:00N 33°06' W 058°42'19115.9 110 / 251016.0 5.4 1.025.023.627.8
2015-Aug-21 06:00N 31°54' W 062°12'19316.1 140 / 101014.0 5.4 24.523.128.4
2015-Aug-20 18:00N 30°42' W 065°42'   150 / 121014.0 5.4 0.527.022.128.2
Track history (hours):
 
Tides and Currents Weather Stations Pressure Air Temp Water Temp Dewpoint Dewpoint Depression Visibility Wind Speed Wind Dir Waves Ship Positions

MSC Lisbon

Last reported at 2015-Aug-30 13:25 UTC. Time now 2015-Aug-30 14:03 UTC.
Position N 36°41' W 000°24'.

Length 336.7 m; beam 45.6 m; draft 15.3 m.

Type: Ship (hazmat cat A). MMSI: 636091276.

Date/timePositionNaut miles runAvg speedWind from/ knotsBaromVisibWave heightAir tempDewpointWater temp
2015-Aug-30 13:25N 36°41' W 000°24'1713.3
2015-Aug-30 12:08N 36°37' W 000°45'913.4
2015-Aug-30 11:28N 36°35' W 000°55'15113.2
2015-Aug-30 00:00N 36°06' W 004°00'24514.5 060 / 161016.0 2.2 25.023.624.2
2015-Aug-29 07:04N 36°31' W 009°03'1213.7
2015-Aug-29 06:13N 36°34' W 009°17'913.7
2015-Aug-29 05:33N 36°40' W 009°25'1313.3
2015-Aug-29 04:33N 36°52' W 009°33'1312.7
2015-Aug-29 03:34N 37°04' W 009°31'1413.6
2015-Aug-29 02:33N 37°16' W 009°22'1413.5
2015-Aug-29 01:33N 37°27' W 009°12'1413.6
2015-Aug-29 00:33N 37°38' W 009°03'1413.9
2015-Aug-28 23:33N 37°50' W 008°53'7 6.4
2015-Aug-28 22:32N 37°56' W 008°51'0 0.0
2015-Aug-28 21:32N 37°56' W 008°51'0 0.0
2015-Aug-28 20:32N 37°56' W 008°51'0 0.0
2015-Aug-28 19:32N 37°56' W 008°51'0 0.0
2015-Aug-28 18:32N 37°56' W 008°51'0 0.0
2015-Aug-28 17:29N 37°56' W 008°51'0 0.0
2015-Aug-28 16:32N 37°56' W 008°51'0 0.0
2015-Aug-28 15:32N 37°56' W 008°51'0 0.0
2015-Aug-28 14:32N 37°56' W 008°51'0 0.0
2015-Aug-28 13:32N 37°56' W 008°51'0 0.0
2015-Aug-28 12:32N 37°56' W 008°51'0 0.0
2015-Aug-28 11:32N 37°56' W 008°51'0 0.0
2015-Aug-28 10:32N 37°56' W 008°51'0 0.0
2015-Aug-28 09:32N 37°56' W 008°51'0 0.2
2015-Aug-28 08:33N 37°56' W 008°51'5 4.7
2015-Aug-28 07:33N 37°54' W 008°56'1111.2
2015-Aug-28 06:33N 37°55' W 009°10'1413.7
2015-Aug-28 05:33N 37°56' W 009°28'1413.7
2015-Aug-28 04:33N 37°59' W 009°45'1313.3
2015-Aug-28 03:33N 38°00' W 010°02'1313.4
2015-Aug-28 02:33N 38°01' W 010°19'1313.3
2015-Aug-28 01:33N 38°02' W 010°35'1313.3
2015-Aug-28 00:33N 38°03' W 010°52'711.8
2015-Aug-28 00:00N 38°00' W 011°00'819.1 280 / 101017.0 5.4 22.521.122.2
2015-Aug-27 23:33N 38°04' W 011°10'1413.8
2015-Aug-27 22:33N 38°04' W 011°27'1413.6
2015-Aug-27 21:33N 38°05' W 011°44'1413.5
2015-Aug-27 20:33N 38°06' W 012°02'1513.9
2015-Aug-27 19:30N 38°07' W 012°20'10213.6
2015-Aug-27 12:00N 38°12' W 014°30'17014.1 230 / 191016.0 5.4 1.524.521.722.5
2015-Aug-27 00:00N 38°18' W 018°06'25114.3 230 / 251014.5 5.4 23.020.823.0
2015-Aug-26 06:28N 38°13' W 023°26'1415.4
2015-Aug-26 05:33N 38°13' W 023°44'1515.5
2015-Aug-26 04:34N 38°12' W 024°04'1616.0
2015-Aug-26 03:33N 38°11' W 024°24'1616.2
2015-Aug-26 02:34N 38°10' W 024°44'1616.3
2015-Aug-26 01:34N 38°10' W 025°05'1616.2
2015-Aug-26 00:33N 38°10' W 025°26'915.6
2015-Aug-26 00:00N 38°06' W 025°36'819.2 240 / 241016.5 5.4 23.522.123.4
2015-Aug-25 23:33N 38°09' W 025°46'1615.7
2015-Aug-25 22:33N 38°09' W 026°06'1615.7
2015-Aug-25 21:34N 38°09' W 026°26'1615.6
2015-Aug-25 20:33N 38°08' W 026°45'1615.7
2015-Aug-25 19:33N 38°08' W 027°05'1615.6
2015-Aug-25 18:33N 38°08' W 027°25'915.2
2015-Aug-25 18:00N 38°06' W 027°36'817.3 240 / 221017.0 5.4 1.526.021.823.4
2015-Aug-25 17:33N 38°07' W 027°45'1615.6
2015-Aug-25 16:33N 38°07' W 028°05'1615.8
2015-Aug-25 15:33N 38°07' W 028°25'1615.7
2015-Aug-25 14:33N 38°06' W 028°45'1615.9
2015-Aug-25 13:33N 38°06' W 029°05'1615.8
2015-Aug-25 12:33N 38°06' W 029°25'1017.8
2015-Aug-25 12:00N 38°00' W 029°36'921.8 240 / 241018.010.8 1.026.021.024.0
2015-Aug-25 11:33N 38°05' W 029°46'1616.0
2015-Aug-25 10:33N 38°05' W 030°06'1616.3
2015-Aug-25 09:33N 38°03' W 030°27'1918.5
2015-Aug-25 08:33N 38°02' W 030°50'2016.3
2015-Aug-25 07:19N 38°00' W 031°16'30315.7
2015-Aug-24 12:00N 37°24' W 037°36'19816.5 240 / 101024.427.0 0.527.020.626.0
2015-Aug-24 00:00N 36°54' W 041°42'19115.9 170 / 71026.127.0 1.025.918.726.9
2015-Aug-23 12:00N 36°18' W 045°36'9515.9 150 / 141024.010.8 1.027.521.124.8
2015-Aug-23 06:00N 35°54' W 047°30'38716.1 180 / 101022.0 5.4 25.022.226.6
2015-Aug-22 06:00N 34°12' W 055°06'19216.0 110 / 191019.0 5.4 26.023.227.7
2015-Aug-21 18:00N 33°06' W 058°42'19115.9 110 / 251016.0 5.4 1.025.023.627.8
2015-Aug-21 06:00N 31°54' W 062°12'19316.1 140 / 101014.0 5.4 24.523.128.4
2015-Aug-20 18:00N 30°42' W 065°42'   150 / 121014.0 5.4 0.527.022.128.2

Dump ship's entire track history